createdAt,value
2022-11-28T00:02:02.826Z,11.25
2022-11-28T00:07:05.459Z,11.18
2022-11-28T00:12:08.102Z,10.35
2022-11-28T00:17:10.711Z,13.25
2022-11-28T00:22:13.663Z,12.57
2022-11-28T00:27:16.280Z,10.98
2022-11-28T00:32:18.888Z,9.80
2022-11-28T00:37:21.500Z,10.00
2022-11-28T00:42:24.320Z,10.20
2022-11-28T00:47:26.961Z,11.40
2022-11-28T00:52:31.666Z,11.60
2022-11-28T00:57:34.511Z,12.23
2022-11-28T01:02:37.090Z,10.55
2022-11-28T01:07:42.393Z,11.23
2022-11-28T01:12:45.073Z,12.10
2022-11-28T01:17:47.556Z,11.23
2022-11-28T01:22:50.114Z,10.60
2022-11-28T01:27:52.633Z,9.57
2022-11-28T01:32:55.307Z,11.43
2022-11-28T01:37:57.872Z,10.32
2022-11-28T01:43:00.372Z,10.15
2022-11-28T01:48:04.174Z,9.57
2022-11-28T01:53:10.300Z,9.70
2022-11-28T01:58:13.416Z,11.15
2022-11-28T02:03:25.125Z,10.13
2022-11-28T02:08:27.814Z,9.77
2022-11-28T02:13:57.254Z,8.52
2022-11-28T02:19:55.509Z,7.65
2022-11-28T02:25:20.017Z,9.32
2022-11-28T02:30:39.401Z,9.38
2022-11-28T02:36:14.715Z,8.75
2022-11-28T02:41:49.704Z,9.25
2022-11-28T02:47:01.820Z,7.97
2022-11-28T02:52:15.027Z,9.30
2022-11-28T02:57:17.540Z,8.57
2022-11-28T03:02:29.222Z,9.13
2022-11-28T03:08:02.957Z,11.52
2022-11-28T03:13:48.131Z,14.23
2022-11-28T03:19:05.686Z,11.07
2022-11-28T03:24:18.558Z,6.95
2022-11-28T03:29:41.936Z,10.18
2022-11-28T03:34:49.155Z,9.40
2022-11-28T03:40:00.170Z,9.30
2022-11-28T03:45:27.807Z,10.93
2022-11-28T03:50:45.501Z,10.68
2022-11-28T03:56:21.514Z,12.02
2022-11-28T04:01:34.160Z,11.80
2022-11-28T04:07:11.400Z,11.43
2022-11-28T04:12:46.138Z,11.52
2022-11-28T04:18:00.568Z,13.30
2022-11-28T04:28:33.121Z,13.68
2022-11-28T04:33:41.092Z,13.40
2022-11-28T04:38:54.300Z,14.07
2022-11-28T04:44:33.778Z,11.93
2022-11-28T04:49:36.556Z,11.93
2022-11-28T04:55:00.707Z,14.20
2022-11-28T05:00:09.644Z,26.88
2022-11-28T05:05:20.008Z,25.33
2022-11-28T05:10:22.605Z,20.58
2022-11-28T05:15:25.161Z,25.40
2022-11-28T05:20:27.883Z,14.15
2022-11-28T05:25:30.455Z,10.68
2022-11-28T05:30:33.098Z,21.77
2022-11-28T05:35:38.766Z,62.10
2022-11-28T05:40:44.534Z,33.22
2022-11-28T05:45:47.107Z,55.25
2022-11-28T05:50:52.569Z,41.15
2022-11-28T05:55:55.080Z,38.42
2022-11-28T06:00:57.518Z,39.45
2022-11-28T06:06:00.016Z,48.20
2022-11-28T06:11:04.091Z,29.83
2022-11-28T06:16:13.424Z,20.23
2022-11-28T06:21:16.395Z,13.55
2022-11-28T06:26:22.586Z,15.65
2022-11-28T06:31:30.406Z,13.70
2022-11-28T06:36:53.412Z,12.00
2022-11-28T06:41:55.941Z,12.48
2022-11-28T06:46:58.424Z,13.35
2022-11-28T06:52:00.914Z,7.90
2022-11-28T06:57:08.042Z,11.10
2022-11-28T07:02:14.017Z,13.68
2022-11-28T07:07:17.051Z,15.27
2022-11-28T07:12:19.780Z,19.08
2022-11-28T07:17:22.499Z,13.85
2022-11-28T07:22:24.981Z,14.32
2022-11-28T07:28:22.996Z,33.55
2022-11-28T07:39:18.091Z,21.23
2022-11-28T07:39:51.537Z,20.17
2022-11-28T07:44:20.667Z,25.25
2022-11-28T07:49:23.248Z,15.75
2022-11-28T07:54:25.810Z,15.88
2022-11-28T07:59:29.898Z,18.10
2022-11-28T08:04:34.036Z,13.97
2022-11-28T08:09:38.157Z,17.38
2022-11-28T08:14:42.401Z,15.35
2022-11-28T08:19:54.385Z,16.40
2022-11-28T08:25:16.909Z,15.43
2022-11-28T08:30:40.116Z,17.35
2022-11-28T08:35:50.440Z,21.77
2022-11-28T08:41:16.118Z,18.67
2022-11-28T08:46:39.072Z,17.95
2022-11-28T08:52:02.275Z,20.38
2022-11-28T08:57:24.889Z,20.95
2022-11-28T09:02:47.908Z,21.90
2022-11-28T09:08:12.228Z,19.40
2022-11-28T09:13:35.112Z,19.83
2022-11-28T09:18:59.943Z,20.10
2022-11-28T09:24:22.844Z,24.35
2022-11-28T09:29:46.178Z,20.17
2022-11-28T09:35:09.273Z,20.60
2022-11-28T09:41:08.316Z,17.35
2022-11-28T09:53:25.879Z,23.40
2022-11-28T09:58:58.089Z,18.40
2022-11-28T10:05:21.836Z,22.75
2022-11-28T10:11:17.077Z,22.95
2022-11-28T10:16:59.521Z,21.25
2022-11-28T10:22:23.913Z,29.42
2022-11-28T10:27:56.025Z,17.20
2022-11-28T10:33:45.358Z,20.40
2022-11-28T10:39:19.841Z,20.00
2022-11-28T10:45:11.975Z,19.37
2022-11-28T10:51:12.329Z,21.20
2022-11-28T10:56:51.932Z,17.27
2022-11-28T11:02:28.833Z,74.38
2022-11-28T11:08:06.333Z,67.97
2022-11-28T11:27:30.893Z,19.20
2022-11-28T11:38:51.352Z,13.80
2022-11-28T11:44:43.817Z,16.13
2022-11-28T11:50:19.013Z,14.95
2022-11-28T11:55:58.090Z,15.95
2022-11-28T12:01:30.831Z,13.95
2022-11-28T12:07:23.519Z,15.27
2022-11-28T12:12:49.147Z,12.90
2022-11-28T12:18:34.996Z,12.35
2022-11-28T12:24:15.114Z,17.25
2022-11-28T12:30:39.104Z,15.73
2022-11-28T12:36:29.793Z,13.48
2022-11-28T12:42:44.069Z,11.98
2022-11-28T12:48:23.582Z,10.68
2022-11-28T12:54:27.744Z,12.00
2022-11-28T13:00:37.968Z,14.65
2022-11-28T13:06:21.034Z,9.75
2022-11-28T13:12:01.204Z,11.05
2022-11-28T13:17:51.698Z,11.52
2022-11-28T13:24:28.751Z,11.25
2022-11-28T13:30:16.237Z,10.82
2022-11-28T13:35:41.030Z,10.60
2022-11-28T13:48:49.755Z,18.73
2022-11-28T13:54:48.377Z,15.10
2022-11-28T14:00:46.698Z,15.43
2022-11-28T14:06:33.685Z,19.45
2022-11-28T14:12:40.686Z,19.25
2022-11-28T14:18:47.660Z,11.10
2022-11-28T14:24:03.697Z,52.60
2022-11-28T14:29:54.732Z,29.90
2022-11-28T14:35:58.667Z,50.22
2022-11-28T14:41:23.924Z,35.40
2022-11-28T14:47:19.767Z,69.47
2022-11-28T14:52:42.740Z,22.65
2022-11-28T14:58:11.662Z,13.85
2022-11-28T15:03:48.796Z,13.77
2022-11-28T15:09:19.945Z,17.52
2022-11-28T15:14:46.236Z,24.80
2022-11-28T15:20:21.874Z,22.65
2022-11-28T15:25:46.750Z,19.70
2022-11-28T15:31:12.655Z,19.83
2022-11-28T15:36:41.869Z,18.02
2022-11-28T15:42:06.634Z,26.58
2022-11-28T15:47:20.831Z,16.90
2022-11-28T15:52:36.970Z,20.38
2022-11-28T15:57:59.632Z,17.52
2022-11-28T16:03:31.649Z,16.67
2022-11-28T16:09:07.796Z,14.15
2022-11-28T16:14:43.088Z,13.38
2022-11-28T16:20:07.772Z,13.63
2022-11-28T16:25:33.652Z,18.20
2022-11-28T16:31:01.855Z,15.13
2022-11-28T16:36:42.943Z,13.10
2022-11-28T16:42:41.758Z,14.43
2022-11-28T16:48:25.592Z,14.43
2022-11-28T16:54:09.867Z,13.85
2022-11-28T16:59:32.841Z,20.10
2022-11-28T17:04:56.641Z,17.30
2022-11-28T17:10:21.013Z,17.17
2022-11-28T17:15:43.766Z,12.88
2022-11-28T17:21:08.793Z,15.30
2022-11-28T17:26:31.818Z,19.95
2022-11-28T17:31:55.837Z,20.42
2022-11-28T17:37:19.702Z,17.17
2022-11-28T17:42:42.734Z,23.85
2022-11-28T17:48:06.740Z,21.25
2022-11-28T17:53:29.734Z,16.90
2022-11-28T17:58:56.706Z,16.60
2022-11-28T18:04:19.724Z,16.27
2022-11-28T18:09:43.119Z,11.82
2022-11-28T18:15:10.253Z,14.02
2022-11-28T18:20:35.592Z,15.07
2022-11-28T18:26:00.692Z,15.35
2022-11-28T18:31:31.713Z,14.02
2022-11-28T18:36:56.645Z,16.00
2022-11-28T18:42:21.681Z,16.75
2022-11-28T18:47:44.714Z,18.45
2022-11-28T18:53:07.695Z,13.50
2022-11-28T18:58:31.578Z,13.38
2022-11-28T19:03:56.682Z,16.55
2022-11-28T19:09:22.623Z,16.17
2022-11-28T19:14:46.620Z,16.67
2022-11-28T19:20:09.703Z,13.88
2022-11-28T19:25:32.780Z,14.50
2022-11-28T19:30:55.680Z,13.85
2022-11-28T19:36:21.701Z,11.35
2022-11-28T19:41:44.650Z,9.68
2022-11-28T19:47:08.616Z,12.15
2022-11-28T19:52:31.657Z,14.68
2022-11-28T19:57:55.661Z,15.43
2022-11-28T20:03:18.657Z,12.68
2022-11-28T20:08:41.627Z,13.77
2022-11-28T20:14:14.551Z,13.90
2022-11-28T20:20:02.602Z,19.08
2022-11-28T20:25:33.718Z,13.43
2022-11-28T20:31:02.651Z,13.70
2022-11-28T20:36:30.691Z,12.82
2022-11-28T20:42:02.805Z,16.42
2022-11-28T20:47:27.236Z,14.02
2022-11-28T20:52:51.911Z,18.15
2022-11-28T20:58:22.457Z,17.38
2022-11-28T21:03:54.100Z,15.75
2022-11-28T21:09:19.488Z,17.27
2022-11-28T21:14:42.495Z,15.30
2022-11-28T21:20:05.465Z,14.77
2022-11-28T21:25:28.502Z,11.13
2022-11-28T21:30:54.513Z,13.32
2022-11-28T21:36:19.459Z,16.20
2022-11-28T21:41:42.446Z,14.50
2022-11-28T21:47:05.481Z,14.23
2022-11-28T21:52:30.450Z,15.63
2022-11-28T21:57:53.490Z,14.48
2022-11-28T22:03:17.543Z,14.27
2022-11-28T22:08:40.445Z,14.27
2022-11-28T22:14:03.470Z,13.88
2022-11-28T22:19:26.444Z,13.02
2022-11-28T22:24:49.733Z,16.23
2022-11-28T22:30:12.453Z,13.68
2022-11-28T22:35:35.479Z,13.10
2022-11-28T22:40:58.539Z,13.98
2022-11-28T22:46:21.455Z,12.65
2022-11-28T22:51:45.450Z,15.93
2022-11-28T22:57:08.421Z,13.15
2022-11-28T23:02:33.538Z,16.60
2022-11-28T23:07:56.473Z,13.75
2022-11-28T23:13:20.416Z,12.05
2022-11-28T23:18:43.434Z,15.77
2022-11-28T23:24:07.405Z,15.82
2022-11-28T23:29:30.526Z,14.93
2022-11-28T23:34:54.410Z,14.23
2022-11-28T23:40:17.435Z,15.93
2022-11-28T23:45:40.463Z,14.77
2022-11-28T23:51:03.374Z,10.77
2022-11-28T23:56:32.422Z,11.95
